Flight Track Log - Related Links

Times and Time Zones

All times are in EDT time to prevent confusion due to time zone crossing. See the CES2307 flight status page for this flight to view local times or setup timezone preferences in your user account.

Time Position Orientation Groundspeed Altitude Reporting Facility
EDT Latitude Longitude Course Direction KTS MPH feet Rate Location/Type
Tue 08:07:00 AM 33.5038 108.8951 173° South  Level Estimated
Tue 08:08:00 AM 33.3990 108.9108 173° South  Level Estimated
Tue 08:09:00 AM 33.2942 108.9265 173° South  Level Estimated
Tue 08:10:00 AM 33.1894 108.9422 173° South  Level Estimated
Tue 08:11:00 AM 33.0845 108.9578 173° South  Level Estimated
Tue 08:12:00 AM 32.9797 108.9734 173° South  Level Estimated
Tue 08:13:00 AM 32.8749 108.9890 173° South  Level Estimated
Tue 08:14:00 AM 32.7701 109.0045 173° South  Level Estimated
Tue 08:15:00 AM 32.6652 109.0200 173° South  Level Estimated
Tue 08:16:00 AM 32.5604 109.0355 173° South  Level Estimated
Tue 08:17:00 AM 32.4556 109.0509 173° South  Level Estimated
Tue 08:18:00 AM 32.3507 109.0663 173° South  Level Estimated
Tue 08:19:00 AM 32.2459 109.0816 173° South  Level Estimated
Tue 08:20:00 AM 32.1410 109.0969 173° South  Level Estimated
Tue 08:21:00 AM 32.0362 109.1122 173° South  Level Estimated
Tue 08:22:00 AM 31.9314 109.1274 173° South  Level Estimated
Tue 08:23:00 AM 31.8265 109.1426 173° South  Level Estimated
Tue 08:24:00 AM 31.7216 109.1578 173° South  Level Estimated
Tue 08:25:00 AM 31.6168 109.1730 173° South  Level Estimated
Tue 08:26:00 AM 31.5119 109.1880 173° South  Level Estimated
Tue 08:27:00 AM 31.4071 109.2031 173° South  Level Estimated
Tue 08:28:00 AM 31.3022 109.2181 173° South  Level Estimated
Tue 08:29:00 AM 31.1974 109.2331 173° South  Level Estimated
Tue 08:30:00 AM 31.0925 109.2481 173° South  Level Estimated
Tue 08:31:00 AM 30.9876 109.2630 173° South  Level Estimated
Tue 08:32:00 AM 30.8828 109.2779 173° South  Level Estimated
Tue 08:33:00 AM 30.7779 109.2928 173° South  Level Estimated
Tue 08:34:00 AM 30.6731 109.3077 173° South  Level Estimated
Tue 08:35:00 AM 30.5682 109.3225 173° South  Level Estimated
Tue 08:36:00 AM 30.4633 109.3372 173° South  Level Estimated
Tue 08:37:00 AM 30.3584 109.3520 173° South  Level Estimated
Tue 08:38:00 AM 30.2536 109.3667 173° South  Level Estimated
Tue 08:39:00 AM 30.1487 109.3814 173° South  Level Estimated
Tue 08:40:00 AM 30.0438 109.3960 173° South  Level Estimated
Tue 08:41:00 AM 29.9389 109.4106 173° South  Level Estimated
Tue 08:42:00 AM 29.8341 109.4252 173° South  Level Estimated
Tue 08:43:00 AM 29.7292 109.4398 173° South  Level Estimated
Tue 08:44:00 AM 29.6243 109.4543 173° South  Level Estimated
Tue 08:45:00 AM 29.5194 109.4688 173° South  Level Estimated
Tue 08:46:00 AM 29.4145 109.4832 173° South  Level Estimated
Tue 08:47:00 AM 29.3096 109.4977 173° South  Level Estimated
Tue 08:48:00 AM 29.2048 109.5121 173° South  Level Estimated
Tue 08:49:00 AM 29.0999 109.5265 173° South  Level Estimated
Tue 08:50:00 AM 28.9950 109.5408 173° South  Level Estimated
Tue 08:51:00 AM 28.8901 109.5551 173° South  Level Estimated
Tue 08:52:00 AM 28.7852 109.5694 173° South  Level Estimated
Tue 08:53:00 AM 28.6803 109.5837 173° South  Level Estimated
Tue 08:54:00 AM 28.5754 109.5979 173° South  Level Estimated
Tue 08:55:00 AM 28.4705 109.6121 173° South  Level Estimated
Tue 08:56:00 AM 28.3656 109.6263 173° South  Level Estimated
Tue 08:57:00 AM 28.2607 109.6404 173° South  Level Estimated
Tue 08:58:00 AM 28.1558 109.6545 173° South  Level Estimated
Tue 08:59:00 AM 28.0509 109.6686 173° South  Level Estimated
Tue 09:00:00 AM 27.9460 109.6827 173° South  Level Estimated
Tue 09:01:00 AM 27.8410 109.6967 173° South  Level Estimated
Tue 09:02:00 AM 27.7361 109.7107 173° South  Level Estimated
Tue 09:03:00 AM 27.6312 109.7247 173° South  Level Estimated
Tue 09:04:00 AM 27.5263 109.7387 173° South  Level Estimated
Tue 09:05:00 AM 27.4214 109.7526 173° South  Level Estimated
Tue 09:06:00 AM 27.3165 109.7665 173° South  Level Estimated
Tue 09:07:00 AM 27.2116 109.7804 173° South  Level Estimated
Tue 09:08:00 AM 27.1066 109.7942 173° South  Level Estimated
Tue 09:09:00 AM 27.0017 109.8080 173° South  Level Estimated
Tue 09:10:00 AM 26.8968 109.8218 173° South  Level Estimated
Tue 09:11:00 AM 26.7919 109.8356 173° South  Level Estimated
Tue 09:12:00 AM 26.6870 109.8494 173° South  Level Estimated
Tue 09:13:00 AM 26.5820 109.8631 173° South  Level Estimated
Tue 09:14:00 AM 26.4771 109.8768 173° South  Level Estimated
Tue 09:15:00 AM 26.3722 109.8904 173° South  Level Estimated
Tue 09:16:00 AM 26.2673 109.9041 173° South  Level Estimated
Tue 09:17:00 AM 26.1623 109.9177 173° South  Level Estimated
Tue 09:18:00 AM 26.0574 109.9313 173° South  Level Estimated
Tue 09:19:00 AM 25.9525 109.9449 173° South  Level Estimated
Tue 09:20:00 AM 25.8475 109.9584 173° South  Level Estimated
Tue 09:21:00 AM 25.7426 109.9720 173° South  Level Estimated
Tue 09:22:00 AM 25.6376 109.9855 173° South  Level Estimated
Tue 09:23:00 AM 25.5327 109.9989 173° South  Level Estimated
Tue 09:24:00 AM 25.4278 110.0124 173° South  Level Estimated
Tue 09:25:00 AM 25.3191 110.0263 173° South  Level Estimated
Tue 09:26:00 AM 25.2181 110.0392 173° South  Level Estimated
Tue 09:27:00 AM 25.2181 110.0392 North  Level Estimated
Tue 09:28:00 AM 25.2181 110.0392 North  Level Estimated
Tue 09:29:00 AM 25.2181 110.0392 North  Level Estimated
Tue 09:30:00 AM 25.2181 110.0392 North  Level Estimated
Tue 09:31:00 AM 25.2181 110.0392 North  Level Estimated
Tue 09:32:00 AM 25.2181 110.0392 North  Level Estimated
Tue 09:33:00 AM 25.2181 110.0392 North  Level Estimated
Tue 09:34:00 AM 25.2181 110.0392 North  Level Estimated
Tue 09:35:00 AM 25.2181 110.0392 North  Level Estimated
Tue 09:36:00 AM 25.2181 110.0392 North  Level Estimated
Tue 09:37:00 AM 25.2181 110.0392 North  Level Estimated
Tue 09:38:00 AM 25.2181 110.0392 North  Level Estimated
Tue 09:39:00 AM 25.2181 110.0392 North  Level Estimated

Login

Don't have an account? Register now (free) for customized features, flight alerts, and more!